Time;durP1;ratioP1;P1;durP2;ratioP2;P2;SDS_P1;SDS_P2;PMS_P1;PMS_P2;Temp;Humidity;BMP_temperature;BMP_pressure;BME280_temperature;BME280_humidity;BME280_pressure;Samples;Min_cycle;Max_cycle;Signal;HPM_P1;HPM_P2
2022/07/17 00:01:08;;;;;;;16.58;9.07;;;15.70;91.50;;;;;;5061868;28;20020;-92
2022/07/17 00:03:33;;;;;;;16.65;8.65;;;15.70;91.80;;;;;;5061496;28;20555;-93
2022/07/17 00:05:59;;;;;;;15.25;9.02;;;15.70;91.90;;;;;;5079634;28;20030;-92
2022/07/17 00:08:25;;;;;;;12.88;7.95;;;15.70;92.10;;;;;;5079279;28;20028;-92
2022/07/17 00:10:51;;;;;;;20.83;8.98;;;15.60;92.20;;;;;;5079941;28;20135;-91
2022/07/17 00:13:17;;;;;;;14.05;7.82;;;15.60;92.50;;;;;;5080838;28;20024;-90
2022/07/17 00:15:43;;;;;;;16.13;9.07;;;15.50;92.60;;;;;;5060506;28;20475;-92
2022/07/17 00:18:09;;;;;;;13.90;8.40;;;15.40;92.80;;;;;;5062551;28;20016;-92
2022/07/17 00:20:36;;;;;;;16.15;8.57;;;15.40;93.00;;;;;;5093399;28;20036;-88
2022/07/17 00:23:01;;;;;;;14.18;8.68;;;15.30;93.20;;;;;;5079569;28;20028;-88
2022/07/17 00:25:28;;;;;;;15.27;8.45;;;15.20;93.50;;;;;;5080251;28;20036;-91
2022/07/17 00:27:54;;;;;;;15.20;9.18;;;15.10;93.70;;;;;;5080001;28;20874;-92
2022/07/17 00:30:19;;;;;;;15.50;8.48;;;15.10;94.10;;;;;;5062350;28;20084;-94
2022/07/17 00:32:45;;;;;;;14.63;8.63;;;15.10;94.30;;;;;;5063596;28;20464;-93
2022/07/17 00:35:12;;;;;;;13.82;7.95;;;15.00;94.60;;;;;;5086762;28;20048;-93
2022/07/17 00:37:42;;;;;;;13.27;8.02;;;15.00;94.80;;;;;;5085148;28;20103;-93
2022/07/17 00:40:11;;;;;;;14.90;8.43;;;14.90;95.10;;;;;;5064063;28;20028;-92
2022/07/17 00:42:40;;;;;;;12.77;7.90;;;14.90;95.30;;;;;;5062208;28;20036;-93
2022/07/17 00:45:10;;;;;;;13.18;8.27;;;14.90;95.50;;;;;;5059499;28;20029;-93
2022/07/17 00:47:55;;;;;;;12.93;7.57;;;14.90;95.80;;;;;;5059352;28;20387;-94
2022/07/17 00:50:30;;;;;;;13.55;8.35;;;14.80;96.00;;;;;;5077240;28;20032;-94
2022/07/17 00:52:56;;;;;;;12.00;8.05;;;14.80;96.30;;;;;;5080494;28;20034;-94
2022/07/17 00:55:23;;;;;;;14.25;7.78;;;14.80;96.40;;;;;;5078550;28;20063;-92
2022/07/17 00:57:49;;;;;;;14.82;8.07;;;14.70;96.50;;;;;;5066123;28;20020;-92
2022/07/17 01:00:16;;;;;;;14.15;8.07;;;14.60;96.80;;;;;;5068041;28;20110;-95
2022/07/17 01:02:46;;;;;;;12.57;7.72;;;14.60;97.10;;;;;;5080275;28;20086;-94
2022/07/17 01:05:12;;;;;;;14.30;8.18;;;14.50;97.40;;;;;;5077312;28;20035;-92
2022/07/17 01:07:38;;;;;;;14.40;8.15;;;14.50;97.70;;;;;;5059210;28;20021;-92
2022/07/17 01:10:04;;;;;;;14.18;7.63;;;14.50;97.90;;;;;;5080632;28;20075;-91
2022/07/17 01:12:32;;;;;;;12.70;7.45;;;14.40;98.20;;;;;;5090245;28;20032;-92
2022/07/17 01:14:58;;;;;;;14.90;7.97;;;14.40;98.30;;;;;;5077462;28;20012;-91
2022/07/17 01:17:24;;;;;;;12.90;8.20;;;14.40;98.60;;;;;;5092288;28;20009;-93
2022/07/17 01:19:50;;;;;;;16.95;8.18;;;14.40;98.90;;;;;;5077012;28;20028;-91
2022/07/17 01:22:15;;;;;;;13.93;8.15;;;14.30;99.20;;;;;;5067935;28;20024;-93
2022/07/17 01:24:41;;;;;;;12.75;7.80;;;14.30;99.50;;;;;;5059141;28;20148;-90
2022/07/17 01:27:07;;;;;;;13.82;7.90;;;14.30;99.70;;;;;;5058318;28;20021;-92
2022/07/17 01:31:18;;;;;;;15.35;8.45;;;14.30;99.90;;;;;;5052811;27;20976;-91
2022/07/17 01:33:44;;;;;;;19.35;8.52;;;14.30;99.90;;;;;;5051993;28;20059;-92
2022/07/17 01:36:09;;;;;;;13.02;7.85;;;14.30;99.90;;;;;;5053325;28;20039;-94
2022/07/17 01:38:35;;;;;;;13.02;7.75;;;14.20;99.90;;;;;;5058539;28;20021;-93
2022/07/17 01:41:01;;;;;;;13.25;8.25;;;14.20;99.90;;;;;;5057301;28;20135;-94
2022/07/17 01:43:26;;;;;;;12.63;7.90;;;14.20;99.90;;;;;;5051907;28;20265;-92
2022/07/17 01:45:52;;;;;;;14.25;8.02;;;14.10;99.90;;;;;;5052397;28;20017;-93
2022/07/17 01:48:29;;;;;;;14.18;8.18;;;14.10;99.90;;;;;;5051064;28;20033;-93
2022/07/17 01:50:55;;;;;;;14.27;8.30;;;14.00;99.90;;;;;;5049899;28;20045;-92
2022/07/17 01:53:21;;;;;;;15.43;7.93;;;14.00;99.90;;;;;;5050778;28;20120;-94
2022/07/17 01:55:47;;;;;;;15.40;8.65;;;13.90;99.90;;;;;;5050665;28;20103;-93
2022/07/17 01:58:14;;;;;;;14.02;8.05;;;13.90;99.90;;;;;;5050479;28;20029;-92
2022/07/17 02:00:40;;;;;;;12.90;8.30;;;13.90;99.90;;;;;;5051916;28;20017;-95
2022/07/17 02:03:06;;;;;;;13.27;8.15;;;13.80;99.90;;;;;;5059602;28;20098;-91
2022/07/17 02:05:32;;;;;;;13.35;8.38;;;13.80;99.90;;;;;;5060520;28;20507;-93
2022/07/17 02:07:57;;;;;;;13.35;8.00;;;13.70;99.90;;;;;;5061115;28;20548;-93
2022/07/17 02:10:24;;;;;;;13.23;8.52;;;13.70;99.90;;;;;;5059143;28;20103;-92
2022/07/17 02:12:50;;;;;;;13.45;8.30;;;13.70;99.90;;;;;;5057803;28;20044;-92
2022/07/17 02:15:15;;;;;;;15.52;8.15;;;13.60;99.90;;;;;;5056565;28;20549;-93
2022/07/17 02:17:42;;;;;;;19.40;8.65;;;13.70;99.90;;;;;;5054431;28;20021;-92
2022/07/17 02:20:09;;;;;;;13.63;7.78;;;13.60;99.90;;;;;;5050145;28;20051;-93
2022/07/17 02:22:36;;;;;;;12.85;8.23;;;13.60;99.90;;;;;;5050263;28;20017;-92
2022/07/17 02:25:03;;;;;;;13.07;7.90;;;13.60;99.90;;;;;;5049897;28;20060;-91
2022/07/17 02:27:31;;;;;;;16.52;8.60;;;13.60;99.90;;;;;;5050615;28;20021;-92
2022/07/17 02:29:57;;;;;;;13.52;7.55;;;13.60;99.90;;;;;;5049792;28;20092;-92
2022/07/17 02:32:23;;;;;;;14.65;8.90;;;13.60;99.90;;;;;;5049836;28;20024;-92
2022/07/17 02:34:48;;;;;;;15.65;8.88;;;13.50;99.90;;;;;;5049878;28;20036;-92
2022/07/17 02:37:14;;;;;;;15.27;8.63;;;13.50;99.90;;;;;;5050823;28;20025;-92
2022/07/17 02:39:52;;;;;;;13.85;8.07;;;13.50;99.90;;;;;;5052756;28;20028;-94
2022/07/17 02:42:22;;;;;;;14.98;8.93;;;13.50;99.90;;;;;;5047007;28;20364;-93
2022/07/17 02:44:48;;;;;;;13.90;8.35;;;13.40;99.90;;;;;;5037913;28;20486;-95
2022/07/17 02:47:25;;;;;;;12.80;8.13;;;13.40;99.90;;;;;;5037838;28;20036;-93
2022/07/17 02:49:51;;;;;;;14.70;8.63;;;13.50;99.90;;;;;;5036979;28;20034;-93
2022/07/17 02:52:18;;;;;;;15.10;8.65;;;13.50;99.90;;;;;;5037200;28;20052;-93
2022/07/17 02:54:44;;;;;;;16.33;9.00;;;13.50;99.90;;;;;;5036173;28;20029;-92
2022/07/17 02:57:10;;;;;;;15.57;8.70;;;13.50;99.90;;;;;;5036503;28;20395;-92
2022/07/17 02:59:36;;;;;;;14.95;8.75;;;13.50;99.90;;;;;;5037299;28;20025;-92
2022/07/17 03:02:02;;;;;;;14.07;8.65;;;13.50;99.90;;;;;;5037801;28;20029;-93
2022/07/17 03:04:28;;;;;;;13.60;8.48;;;13.40;99.90;;;;;;5037974;28;20057;-93
2022/07/17 03:06:55;;;;;;;16.25;8.77;;;13.30;99.90;;;;;;5037359;28;20095;-93
2022/07/17 03:09:20;;;;;;;15.57;9.18;;;13.30;99.90;;;;;;5053926;28;20045;-92
2022/07/17 03:11:46;;;;;;;19.05;8.75;;;13.30;99.90;;;;;;5046063;28;20075;-93
2022/07/17 03:14:12;;;;;;;16.80;9.07;;;13.30;99.90;;;;;;5039633;28;20033;-94
2022/07/17 03:16:37;;;;;;;15.60;8.82;;;13.30;99.90;;;;;;5036499;28;20036;-91
2022/07/17 03:19:03;;;;;;;20.40;9.57;;;13.40;99.90;;;;;;5034131;28;20112;-91
2022/07/17 03:21:29;;;;;;;16.67;9.32;;;13.40;99.90;;;;;;5036056;28;20029;-92
2022/07/17 03:23:54;;;;;;;16.40;9.25;;;13.40;99.90;;;;;;5035260;28;20394;-92
2022/07/17 03:26:20;;;;;;;18.25;8.52;;;13.30;99.90;;;;;;5036627;28;20037;-94
2022/07/17 03:28:46;;;;;;;16.00;9.18;;;13.30;99.90;;;;;;5036380;28;20025;-93
2022/07/17 03:31:11;;;;;;;14.98;8.50;;;13.30;99.90;;;;;;5053407;28;20049;-88
2022/07/17 03:33:37;;;;;;;15.20;9.27;;;13.30;99.90;;;;;;5056338;28;20025;-94
2022/07/17 03:36:03;;;;;;;17.50;9.82;;;13.40;99.90;;;;;;5037027;28;20057;-93
2022/07/17 03:38:28;;;;;;;13.82;8.68;;;13.40;99.90;;;;;;5037569;28;20399;-93
2022/07/17 03:40:54;;;;;;;14.73;9.25;;;13.40;99.90;;;;;;5041089;28;20030;-93
2022/07/17 03:43:20;;;;;;;16.48;8.80;;;13.40;99.90;;;;;;5036327;28;20087;-93
2022/07/17 03:45:45;;;;;;;17.13;9.07;;;13.40;99.90;;;;;;5035378;28;20028;-92
2022/07/17 03:48:11;;;;;;;19.73;9.50;;;13.40;99.90;;;;;;5035186;28;20076;-91
2022/07/17 03:50:37;;;;;;;17.20;10.73;;;13.40;99.90;;;;;;5036325;28;20499;-94
2022/07/17 03:53:04;;;;;;;15.35;9.15;;;13.30;99.90;;;;;;5035519;28;20057;-94
2022/07/17 03:55:29;;;;;;;16.73;10.15;;;13.30;99.90;;;;;;5036488;28;20025;-94
2022/07/17 03:57:55;;;;;;;16.45;9.00;;;13.20;99.90;;;;;;5035996;28;20030;-92
2022/07/17 04:00:21;;;;;;;15.35;9.23;;;13.20;99.90;;;;;;5034787;28;20055;-92
2022/07/17 04:02:46;;;;;;;14.85;8.90;;;13.10;99.90;;;;;;5035979;28;20107;-93
2022/07/17 04:05:12;;;;;;;15.95;8.45;;;13.10;99.90;;;;;;5035894;28;20052;-92
2022/07/17 04:07:40;;;;;;;15.10;9.00;;;13.10;99.90;;;;;;5034548;28;20116;-93
2022/07/17 04:10:08;;;;;;;16.80;9.00;;;13.10;99.90;;;;;;5034558;28;20120;-93
2022/07/17 04:12:34;;;;;;;16.60;8.77;;;13.20;99.90;;;;;;5036158;28;20075;-92
2022/07/17 04:14:59;;;;;;;15.07;8.95;;;13.20;99.90;;;;;;5034937;28;20033;-93
2022/07/17 04:17:26;;;;;;;15.98;8.93;;;13.20;99.90;;;;;;5034672;28;20033;-92
2022/07/17 04:19:52;;;;;;;14.80;8.60;;;13.30;99.90;;;;;;5035873;28;20021;-93
2022/07/17 04:22:18;;;;;;;20.20;9.93;;;13.30;99.90;;;;;;5034845;28;20647;-94
2022/07/17 04:24:44;;;;;;;14.63;9.02;;;13.30;99.90;;;;;;5035554;28;20026;-93
2022/07/17 04:27:09;;;;;;;17.85;10.20;;;13.30;99.90;;;;;;5035256;28;20033;-93
2022/07/17 04:29:35;;;;;;;17.90;8.32;;;13.30;99.90;;;;;;5035154;28;20092;-94
2022/07/17 04:32:02;;;;;;;13.82;8.65;;;13.40;99.90;;;;;;5034455;28;20066;-93
2022/07/17 04:34:28;;;;;;;18.08;9.15;;;13.40;99.90;;;;;;5034250;28;20026;-92
2022/07/17 04:36:54;;;;;;;17.83;9.50;;;13.40;99.90;;;;;;5038786;28;20064;-93
2022/07/17 04:39:20;;;;;;;15.07;8.48;;;13.40;99.90;;;;;;5038646;28;20022;-93
2022/07/17 04:41:45;;;;;;;17.33;9.63;;;13.30;99.90;;;;;;5037119;28;20128;-93
2022/07/17 04:44:11;;;;;;;16.75;8.90;;;13.30;99.90;;;;;;5037526;28;20029;-94
2022/07/17 04:46:37;;;;;;;14.63;9.50;;;13.30;99.90;;;;;;5038343;28;20033;-92
2022/07/17 04:49:03;;;;;;;16.42;9.48;;;13.30;99.90;;;;;;5036431;28;20021;-93
2022/07/17 04:51:29;;;;;;;13.20;8.55;;;13.30;99.90;;;;;;5037733;28;20387;-91
2022/07/17 04:53:54;;;;;;;17.90;9.63;;;13.30;99.90;;;;;;5034319;28;20048;-92
2022/07/17 04:56:20;;;;;;;15.55;9.93;;;13.30;99.90;;;;;;5035167;28;20040;-93
2022/07/17 04:58:46;;;;;;;14.93;8.75;;;13.30;99.90;;;;;;5034153;28;20032;-93
2022/07/17 05:01:11;;;;;;;15.95;9.18;;;13.30;99.90;;;;;;5034105;28;20021;-91
2022/07/17 05:03:37;;;;;;;16.60;9.93;;;13.40;99.90;;;;;;5034137;28;20033;-91
2022/07/17 05:06:03;;;;;;;19.02;10.25;;;13.40;99.90;;;;;;5033692;28;20021;-93
2022/07/17 05:08:29;;;;;;;18.95;10.00;;;13.40;99.90;;;;;;5033755;28;20033;-94
2022/07/17 05:10:55;;;;;;;16.48;9.55;;;13.40;99.90;;;;;;5034280;28;20040;-93
2022/07/17 05:13:21;;;;;;;21.15;10.38;;;13.40;99.90;;;;;;5043053;28;20025;-91
2022/07/17 05:15:46;;;;;;;17.05;9.50;;;13.40;99.90;;;;;;5038940;28;20394;-91
2022/07/17 05:18:12;;;;;;;18.77;9.93;;;13.50;99.90;;;;;;5039470;28;20502;-90
2022/07/17 05:20:39;;;;;;;17.95;10.43;;;13.40;99.90;;;;;;5036233;28;20072;-94
2022/07/17 05:23:05;;;;;;;17.25;10.30;;;13.50;99.90;;;;;;5036112;28;20096;-94
2022/07/17 05:25:31;;;;;;;14.30;9.02;;;13.60;99.90;;;;;;5038141;28;20072;-91
2022/07/17 05:27:57;;;;;;;14.80;8.57;;;13.60;99.90;;;;;;5036260;28;20025;-92
2022/07/17 05:30:23;;;;;;;14.85;9.43;;;13.70;99.90;;;;;;5038000;28;20045;-93
2022/07/17 05:32:48;;;;;;;17.88;9.82;;;13.70;99.90;;;;;;5036298;28;20033;-93
2022/07/17 05:35:14;;;;;;;16.60;9.43;;;13.70;99.90;;;;;;5035783;28;20498;-92
2022/07/17 05:37:40;;;;;;;18.50;10.15;;;13.80;99.90;;;;;;5035639;28;20505;-94
2022/07/17 05:40:06;;;;;;;15.90;9.35;;;13.80;99.90;;;;;;5045539;28;20040;-91
2022/07/17 05:42:32;;;;;;;17.65;10.05;;;13.80;99.90;;;;;;5036873;28;20222;-94
2022/07/17 05:44:58;;;;;;;17.65;10.27;;;13.80;99.90;;;;;;5035594;28;20491;-94
2022/07/17 05:47:25;;;;;;;16.73;9.90;;;13.80;99.90;;;;;;5038729;28;20043;-93
2022/07/17 05:49:50;;;;;;;16.52;9.85;;;13.80;99.90;;;;;;5043293;28;20128;-93
2022/07/17 05:52:16;;;;;;;17.63;9.75;;;13.90;99.90;;;;;;5049703;28;20010;-88
2022/07/17 05:54:42;;;;;;;21.67;10.65;;;13.90;99.90;;;;;;5046578;28;20052;-94
2022/07/17 05:57:08;;;;;;;19.88;9.52;;;14.00;99.90;;;;;;5046827;28;20097;-93
2022/07/17 05:59:34;;;;;;;16.42;10.02;;;14.10;99.90;;;;;;5044778;28;20029;-94
2022/07/17 06:02:00;;;;;;;16.85;9.35;;;14.10;99.90;;;;;;5042455;28;20025;-93
2022/07/17 06:04:26;;;;;;;17.02;10.10;;;14.20;99.90;;;;;;5039404;28;20033;-95
2022/07/17 06:06:52;;;;;;;17.02;10.10;;;14.20;99.90;;;;;;5037267;28;20057;-93
2022/07/17 06:09:17;;;;;;;22.80;10.52;;;14.20;99.90;;;;;;5042359;28;20037;-91
2022/07/17 06:11:43;;;;;;;18.90;9.90;;;14.20;99.90;;;;;;5039745;28;20466;-92
2022/07/17 06:14:09;;;;;;;18.80;9.98;;;14.30;99.90;;;;;;5038414;28;20021;-92
2022/07/17 06:16:35;;;;;;;18.65;9.57;;;14.30;99.90;;;;;;5043214;28;20040;-89
2022/07/17 06:19:01;;;;;;;16.20;9.93;;;14.40;99.90;;;;;;5046957;28;20442;-92
2022/07/17 06:21:26;;;;;;;14.32;9.15;;;14.50;99.90;;;;;;5054097;28;20033;-90
2022/07/17 06:23:52;;;;;;;16.40;9.00;;;14.60;99.90;;;;;;5051514;28;20033;-93
2022/07/17 06:26:18;;;;;;;13.68;8.82;;;14.70;99.90;;;;;;5042216;28;20026;-92
2022/07/17 06:28:43;;;;;;;17.33;9.45;;;14.70;99.90;;;;;;5051004;28;20060;-89
2022/07/17 06:31:09;;;;;;;16.98;9.80;;;14.80;99.90;;;;;;5059089;28;20053;-88
2022/07/17 06:33:36;;;;;;;15.88;8.57;;;14.90;99.90;;;;;;5042852;28;20477;-93
2022/07/17 06:36:02;;;;;;;15.05;8.43;;;15.00;99.90;;;;;;5043857;28;20045;-93
2022/07/17 06:38:28;;;;;;;15.98;9.32;;;15.10;99.90;;;;;;5039421;28;20021;-92
2022/07/17 06:40:54;;;;;;;17.38;9.48;;;15.20;99.90;;;;;;5037960;28;20483;-94
2022/07/17 06:43:20;;;;;;;15.02;9.27;;;15.30;99.90;;;;;;5038104;28;20030;-94
2022/07/17 06:45:45;;;;;;;14.43;9.05;;;15.40;99.90;;;;;;5038255;28;20017;-93
2022/07/17 06:48:11;;;;;;;15.88;9.77;;;15.60;99.90;;;;;;5044088;28;20025;-91
2022/07/17 06:50:37;;;;;;;15.40;9.52;;;15.60;99.90;;;;;;5050729;28;20101;-90
2022/07/17 06:53:03;;;;;;;15.07;9.43;;;15.80;99.90;;;;;;5041771;28;20112;-93
2022/07/17 06:55:29;;;;;;;18.58;9.43;;;15.90;99.90;;;;;;5049632;28;20030;-94
2022/07/17 06:57:54;;;;;;;18.17;9.20;;;16.00;99.90;;;;;;5053408;28;20022;-92
2022/07/17 07:00:20;;;;;;;17.13;9.30;;;16.20;99.90;;;;;;5053156;28;20025;-93
2022/07/17 07:02:46;;;;;;;14.00;8.75;;;16.30;99.90;;;;;;5051589;28;20112;-94
2022/07/17 07:05:12;;;;;;;15.23;9.40;;;16.50;99.90;;;;;;5053285;28;20053;-92
2022/07/17 07:07:38;;;;;;;13.77;8.90;;;16.60;99.90;;;;;;5049563;28;20033;-94
2022/07/17 07:10:04;;;;;;;15.02;9.18;;;16.70;99.90;;;;;;5049534;28;20120;-90
2022/07/17 07:12:30;;;;;;;15.27;8.98;;;16.90;99.90;;;;;;5049803;28;20049;-95
2022/07/17 07:14:56;;;;;;;13.32;8.80;;;17.00;99.90;;;;;;5051104;28;20021;-93
2022/07/17 07:17:22;;;;;;;14.63;8.45;;;17.10;99.90;;;;;;5050325;28;20030;-94
2022/07/17 07:19:47;;;;;;;15.25;9.30;;;17.20;99.90;;;;;;5049153;28;20040;-92
2022/07/17 07:22:13;;;;;;;15.23;9.10;;;17.40;99.90;;;;;;5052687;28;20029;-91
2022/07/17 07:24:39;;;;;;;14.73;8.80;;;17.50;99.90;;;;;;5049733;28;20033;-92
2022/07/17 07:27:05;;;;;;;15.48;8.32;;;17.60;99.90;;;;;;5048882;28;20029;-92
2022/07/17 07:29:30;;;;;;;15.25;9.52;;;17.80;99.90;;;;;;5049314;28;20045;-93
2022/07/17 07:31:56;;;;;;;14.35;9.05;;;18.00;99.90;;;;;;5051027;28;20053;-93
2022/07/17 07:34:22;;;;;;;15.73;8.75;;;18.10;99.90;;;;;;5051710;28;20278;-94
2022/07/17 07:36:47;;;;;;;13.98;9.02;;;18.20;99.90;;;;;;5052833;28;20052;-94
2022/07/17 07:39:13;;;;;;;14.80;9.18;;;18.30;99.90;;;;;;5054430;28;20021;-92
2022/07/17 07:41:39;;;;;;;14.43;9.38;;;18.40;99.90;;;;;;5051480;28;20026;-93
2022/07/17 07:44:04;;;;;;;16.50;8.93;;;18.50;99.90;;;;;;5052397;28;20044;-92
2022/07/17 07:46:30;;;;;;;14.35;9.30;;;18.60;99.90;;;;;;5057364;28;20021;-92
2022/07/17 07:48:58;;;;;;;15.57;9.48;;;18.70;99.90;;;;;;5058216;28;20075;-91
2022/07/17 07:51:24;;;;;;;17.73;9.25;;;18.80;99.90;;;;;;5057069;28;20072;-95
2022/07/17 07:53:49;;;;;;;14.15;9.57;;;19.00;99.90;;;;;;5053985;28;20026;-88
2022/07/17 07:56:15;;;;;;;18.80;9.50;;;19.10;99.90;;;;;;5054025;28;20029;-93
2022/07/17 07:58:41;;;;;;;15.15;9.25;;;19.20;99.90;;;;;;5043762;28;20030;-92
2022/07/17 08:01:06;;;;;;;16.00;9.63;;;19.40;99.90;;;;;;5039189;28;20022;-92
2022/07/17 08:03:32;;;;;;;13.10;8.43;;;19.50;99.90;;;;;;5039207;28;20025;-93
2022/07/17 08:05:58;;;;;;;13.40;8.77;;;19.60;99.90;;;;;;5039384;28;20049;-93
2022/07/17 08:08:23;;;;;;;14.70;8.82;;;19.80;99.90;;;;;;5041190;28;20064;-93
2022/07/17 08:10:49;;;;;;;16.05;8.68;;;19.90;99.90;;;;;;5041457;28;20110;-94
2022/07/17 08:13:16;;;;;;;18.38;9.75;;;20.00;99.90;;;;;;5040695;28;20475;-92
2022/07/17 08:15:42;;;;;;;13.18;8.13;;;20.30;99.90;;;;;;5024309;28;20075;-95
2022/07/17 08:18:08;;;;;;;13.75;7.88;;;20.50;99.90;;;;;;5041157;28;20096;-94
2022/07/17 08:20:33;;;;;;;12.85;7.28;;;20.70;99.90;;;;;;5029870;28;20025;-94
2022/07/17 08:22:59;;;;;;;13.50;7.70;;;20.90;99.90;;;;;;5031705;28;20027;-93
2022/07/17 08:25:25;;;;;;;15.73;7.82;;;21.10;99.90;;;;;;5033325;28;20053;-93
2022/07/17 08:27:51;;;;;;;11.38;7.10;;;21.30;98.90;;;;;;5027108;28;20395;-93
2022/07/17 08:30:16;;;;;;;12.07;7.25;;;21.60;97.60;;;;;;5023109;28;20050;-94
2022/07/17 08:32:43;;;;;;;12.80;6.90;;;21.80;96.30;;;;;;5020138;28;20033;-91
2022/07/17 08:35:09;;;;;;;14.50;7.82;;;22.10;95.10;;;;;;5037639;28;20029;-93
2022/07/17 08:37:45;;;;;;;12.70;7.20;;;22.30;93.80;;;;;;5022925;28;20112;-93
2022/07/17 08:40:23;;;;;;;11.93;6.88;;;22.60;92.30;;;;;;5027702;28;20479;-93
2022/07/17 08:42:50;;;;;;;11.48;6.70;;;22.80;91.10;;;;;;5038755;28;20026;-94
2022/07/17 08:45:16;;;;;;;10.40;7.10;;;23.10;90.20;;;;;;5054113;28;20065;-93
2022/07/17 08:47:42;;;;;;;13.65;7.32;;;23.20;88.80;;;;;;5048724;28;20036;-93
2022/07/17 08:50:12;;;;;;;10.35;5.65;;;23.40;87.10;;;;;;5033710;28;20069;-93
2022/07/17 08:52:39;;;;;;;12.90;7.07;;;23.60;85.20;;;;;;5016442;28;20030;-93
2022/07/17 08:55:10;;;;;;;12.00;6.78;;;23.80;83.80;;;;;;5033677;28;20112;-92
2022/07/17 08:57:39;;;;;;;;;;;24.00;82.80;;;;;;5035269;28;20386;-93
2022/07/17 09:00:06;;;;;;;9.98;5.93;;;24.10;81.70;;;;;;5031605;28;19940;-92
2022/07/17 09:02:31;;;;;;;8.30;5.50;;;24.30;80.80;;;;;;5023590;28;20128;-93
2022/07/17 09:04:57;;;;;;;8.63;5.30;;;24.40;78.80;;;;;;5033706;28;20498;-94
2022/07/17 09:07:23;;;;;;;12.43;5.15;;;24.50;77.40;;;;;;5022840;28;20083;-93
2022/07/17 09:09:52;;;;;;;9.23;5.80;;;24.60;76.20;;;;;;5023946;28;20038;-90
2022/07/17 09:12:26;;;;;;;9.30;5.50;;;24.70;75.00;;;;;;5032730;28;20021;-93
2022/07/17 09:14:52;;;;;;;7.78;5.00;;;24.80;73.80;;;;;;5037856;28;20018;-92
2022/07/17 09:17:18;;;;;;;10.07;5.50;;;25.00;73.10;;;;;;5035622;28;20052;-93
2022/07/17 09:19:45;;;;;;;6.85;5.25;;;25.10;72.20;;;;;;5032737;28;20025;-92
2022/07/17 09:22:21;;;;;;;10.20;5.15;;;25.20;71.70;;;;;;5027056;28;20034;-92
2022/07/17 09:24:58;;;;;;;7.47;5.47;;;25.40;70.90;;;;;;5023099;28;20026;-88
2022/07/17 09:27:23;;;;;;;11.20;5.80;;;25.60;70.20;;;;;;5034826;28;20088;-92
2022/07/17 09:30:22;;;;;;;10.23;5.43;;;25.70;68.90;;;;;;5028227;28;20062;-90
2022/07/17 09:32:50;;;;;;;8.70;4.95;;;25.90;67.20;;;;;;5035047;28;20096;-93
2022/07/17 09:35:16;;;;;;;10.05;5.50;;;26.00;66.50;;;;;;5016738;28;20057;-94
2022/07/17 09:42:44;;;;;;;7.85;5.20;;;26.40;65.20;;;;;;5057659;23;20025;-89
2022/07/17 09:45:10;;;;;;;7.90;5.55;;;26.60;64.40;;;;;;5043590;28;20033;-92
2022/07/17 09:47:38;;;;;;;9.27;5.20;;;26.70;64.10;;;;;;5040897;28;20377;-94
2022/07/17 09:50:06;;;;;;;10.13;5.20;;;26.80;63.60;;;;;;5037754;28;20103;-94
2022/07/17 09:52:35;;;;;;;8.98;5.15;;;26.90;63.10;;;;;;5040742;28;20036;-93
2022/07/17 09:55:02;;;;;;;8.35;5.25;;;26.90;62.40;;;;;;5043206;28;20096;-93
2022/07/17 09:57:33;;;;;;;7.75;5.47;;;26.90;62.00;;;;;;5041814;28;20116;-95
2022/07/17 10:00:11;;;;;;;6.25;5.07;;;27.00;61.70;;;;;;5039002;28;20029;-95
2022/07/17 10:02:44;;;;;;;9.85;5.93;;;27.00;61.40;;;;;;5038653;28;20079;-92
2022/07/17 10:05:17;;;;;;;7.38;5.63;;;27.00;61.10;;;;;;5038774;28;20031;-95
2022/07/17 10:07:47;;;;;;;8.40;5.65;;;27.00;61.10;;;;;;5038417;28;20053;-94
2022/07/17 10:10:15;;;;;;;9.73;5.60;;;27.00;61.10;;;;;;5038232;28;20041;-89
2022/07/17 10:12:43;;;;;;;7.95;5.50;;;27.00;60.80;;;;;;5039025;28;20037;-93
2022/07/17 10:15:10;;;;;;;7.90;5.22;;;26.90;60.80;;;;;;5043682;28;20029;-95
2022/07/17 10:17:36;;;;;;;9.43;5.28;;;26.90;60.80;;;;;;5051683;28;20040;-95
2022/07/17 10:20:04;;;;;;;7.13;5.32;;;26.80;60.90;;;;;;5040377;28;20113;-93
2022/07/17 10:22:42;;;;;;;7.95;5.25;;;26.90;61.10;;;;;;5040625;28;20065;-94
2022/07/17 10:25:16;;;;;;;8.13;5.63;;;26.90;60.90;;;;;;5041536;28;20060;-93
2022/07/17 10:27:53;;;;;;;8.02;4.75;;;27.00;60.70;;;;;;5043215;28;20520;-90
2022/07/17 10:30:28;;;;;;;8.32;5.10;;;27.00;60.20;;;;;;5051496;28;20064;-93
2022/07/17 10:32:58;;;;;;;7.13;5.60;;;27.10;59.80;;;;;;5043823;28;20018;-94
2022/07/17 10:35:24;;;;;;;8.48;5.32;;;27.00;59.40;;;;;;5047220;28;20549;-93
2022/07/17 10:37:50;;;;;;;9.30;5.35;;;27.00;59.20;;;;;;5047964;28;20026;-93
2022/07/17 10:40:24;;;;;;;11.15;5.43;;;27.00;59.00;;;;;;5048360;28;20025;-93
2022/07/17 10:43:01;;;;;;;8.32;5.22;;;27.00;59.10;;;;;;5043029;28;20029;-92
2022/07/17 10:45:35;;;;;;;7.63;5.40;;;27.00;58.90;;;;;;5046766;28;20026;-94
2022/07/17 10:48:08;;;;;;;5.97;4.60;;;27.10;58.90;;;;;;5050359;28;20017;-92
2022/07/17 10:50:41;;;;;;;9.25;5.28;;;27.10;58.60;;;;;;5048985;28;20033;-93
2022/07/17 10:53:23;;;;;;;7.78;5.30;;;27.10;58.50;;;;;;5037759;28;20026;-91
2022/07/17 10:55:56;;;;;;;7.25;4.90;;;27.20;58.50;;;;;;5039597;28;20079;-93
2022/07/17 10:58:24;;;;;;;9.27;5.00;;;27.20;58.50;;;;;;5038293;28;20022;-93
2022/07/17 11:01:02;;;;;;;7.38;4.95;;;27.30;58.60;;;;;;5038984;28;20034;-94
2022/07/17 11:03:29;;;;;;;7.55;4.65;;;27.30;58.60;;;;;;5038591;28;20017;-93
2022/07/17 11:05:55;;;;;;;11.90;4.85;;;27.40;58.20;;;;;;5039158;28;20099;-93
2022/07/17 11:08:20;;;;;;;7.25;5.10;;;27.40;57.70;;;;;;5040929;28;20025;-94
2022/07/17 11:10:47;;;;;;;7.18;4.93;;;27.40;57.60;;;;;;5039195;28;20042;-94
2022/07/17 11:13:15;;;;;;;9.90;5.18;;;27.50;57.80;;;;;;5040998;28;20060;-94
2022/07/17 11:15:46;;;;;;;7.57;4.80;;;27.60;58.10;;;;;;5042013;28;20029;-93
2022/07/17 11:18:18;;;;;;;6.63;4.82;;;27.60;58.20;;;;;;5041505;28;20032;-93
2022/07/17 11:20:58;;;;;;;7.78;5.28;;;27.50;58.30;;;;;;5041585;28;20470;-94
2022/07/17 11:23:27;;;;;;;7.93;5.32;;;27.50;58.40;;;;;;5041911;28;20044;-93
2022/07/17 11:25:56;;;;;;;8.85;5.28;;;27.50;58.60;;;;;;5042019;28;20504;-95
2022/07/17 11:28:44;;;;;;;10.27;4.45;;;27.50;58.30;;;;;;5043052;28;20041;-92
2022/07/17 11:31:24;;;;;;;10.85;4.93;;;27.70;58.90;;;;;;5042990;28;20072;-93
2022/07/17 11:33:53;;;;;;;8.07;4.78;;;27.80;58.00;;;;;;5049647;28;20032;-93
2022/07/17 11:36:35;;;;;;;11.25;4.85;;;27.90;58.00;;;;;;5047583;28;20050;-95
2022/07/17 11:39:11;;;;;;;8.02;4.47;;;28.10;57.80;;;;;;5045286;28;20048;-91
2022/07/17 11:41:39;;;;;;;7.05;4.90;;;28.30;57.80;;;;;;5044888;28;20029;-96
2022/07/17 11:44:09;;;;;;;9.02;5.18;;;28.60;57.70;;;;;;5049294;28;20049;-89
2022/07/17 11:46:35;;;;;;;5.85;4.00;;;28.80;57.50;;;;;;5045677;28;20057;-95
2022/07/17 11:49:01;;;;;;;7.50;4.13;;;29.00;57.30;;;;;;5045731;28;20021;-91
2022/07/17 11:51:43;;;;;;;5.90;4.47;;;29.10;56.70;;;;;;5046716;28;20049;-91
2022/07/17 11:54:15;;;;;;;6.60;4.32;;;29.20;55.90;;;;;;5048891;28;20018;-93
2022/07/17 11:56:43;;;;;;;7.93;4.00;;;29.30;55.50;;;;;;5049856;28;20109;-91
2022/07/17 11:59:10;;;;;;;7.75;4.45;;;29.30;54.70;;;;;;5056424;28;20029;-92
2022/07/17 12:01:42;;;;;;;6.43;3.58;;;29.30;54.40;;;;;;5046855;28;20121;-92
2022/07/17 12:04:09;;;;;;;5.07;3.67;;;29.20;54.60;;;;;;5046337;28;20060;-93
2022/07/17 12:06:36;;;;;;;5.45;3.90;;;29.10;54.40;;;;;;5049686;28;20033;-94
2022/07/17 12:09:01;;;;;;;4.65;3.50;;;29.10;54.20;;;;;;5047491;28;20059;-95
2022/07/17 12:11:27;;;;;;;5.63;4.30;;;29.20;54.20;;;;;;5039890;28;20034;-93
2022/07/17 12:13:53;;;;;;;4.85;3.47;;;29.40;53.80;;;;;;5042493;28;20395;-94
2022/07/17 12:16:23;;;;;;;5.43;3.60;;;29.60;53.10;;;;;;5039264;28;20025;-93
2022/07/17 12:19:00;;;;;;;5.25;3.83;;;29.60;52.70;;;;;;5038341;28;20021;-95
2022/07/17 12:21:26;;;;;;;7.95;3.50;;;29.60;51.30;;;;;;5039766;28;20021;-96
2022/07/17 12:24:17;;;;;;;4.30;3.05;;;29.60;51.00;;;;;;5036626;28;20368;-95
2022/07/17 12:26:43;;;;;;;4.80;2.85;;;29.70;51.00;;;;;;5036551;28;20502;-93
2022/07/17 12:29:08;;;;;;;5.80;3.10;;;29.80;51.00;;;;;;5036603;28;20021;-94
2022/07/17 12:31:34;;;;;;;5.28;3.58;;;29.90;51.30;;;;;;5034304;28;20022;-95
2022/07/17 12:34:00;;;;;;;6.05;3.03;;;30.20;51.10;;;;;;5025301;28;20877;-95
2022/07/17 12:36:25;;;;;;;5.32;3.15;;;30.30;50.40;;;;;;5035675;28;20018;-90
2022/07/17 12:38:51;;;;;;;6.43;3.47;;;30.40;49.70;;;;;;5036201;28;20030;-94
2022/07/17 12:41:17;;;;;;;6.38;3.20;;;30.30;49.30;;;;;;5020484;28;20041;-94
2022/07/17 12:43:43;;;;;;;5.95;3.28;;;30.20;49.00;;;;;;5020848;28;20127;-95
2022/07/17 12:46:09;;;;;;;6.90;3.40;;;30.20;49.30;;;;;;5024412;28;20045;-95